»·PEaware :: N763BR KSNA-KDAL

N763BR :: KSNA-KDAL

FLIGHT INFORMATION

Flight Status: Arrived
Operator: Privately registered:
United States
More flights under this callsign
Pilot: John H. (610)
Aircraft: EMBRAER EMB-190/195
(E190)
More flights by this aircraft type
Origin: KSNA John Wayne-Orange Co
United States
Destination: KDAL Dallas Love
United States
More flights between these airports :: More routes between these airports
Route: STREL4 TRM PKE J74 SJN TXO TURKI NANDR3
File this flight plan on PilotEdge
Remarks:
Altitude:
(Current/Filed)
33,000ft
Speed:
(Current/Filed)
450kts
Departed: 01-May-16 07:56 PM
Arrived: 01-May-16 10:12 PM
Distance/Time
Traveled:
1054nm/2:16
Distance/Time
To Go:
Arrived

Flight Plot

Page will automatically refresh every two minutes.


Map Options




Map Legend


Flown Route
Filed Route
Departure Airport
Arrival Airport
Navaid (VOR, NDB)
Fix

Horizontal Profiles

Position Reports

Time Latitude Longitude Heading Altitude Ground
Speed
01-May-16 19:44 33.681150 -117.861221 118 64ft 0kts
01-May-16 19:45 33.681150 -117.861221 118 64ft 0kts
01-May-16 19:46 33.681150 -117.861221 118 64ft 0kts
01-May-16 19:47 33.681150 -117.861221 118 64ft 0kts
01-May-16 19:48 33.681846 -117.861567 211 64ft 0kts
01-May-16 19:49 33.681846 -117.861567 211 64ft 0kts
01-May-16 19:50 33.681846 -117.861567 211 64ft 0kts
01-May-16 19:51 33.681846 -117.861567 211 64ft 0kts
01-May-16 19:52 33.681459 -117.861831 207 64ft 6kts
01-May-16 19:53 33.680664 -117.863085 301 64ft 0kts
01-May-16 19:54 33.681079 -117.863998 296 64ft 20kts
01-May-16 19:55 33.659343 -117.879053 206 859ft 164kts
01-May-16 19:56 33.613122 -117.878546 206 3636ft 189kts
01-May-16 19:57 33.563683 -117.890202 158 6273ft 207kts
01-May-16 19:58 33.508515 -117.854081 121 8489ft 252kts
01-May-16 19:59 33.477783 -117.773973 91 10892ft 285kts
01-May-16 20:00 33.491368 -117.679995 63 13537ft 295kts
01-May-16 20:01 33.531017 -117.593827 60 15937ft 300kts
01-May-16 20:02 33.572466 -117.506342 59 18345ft 307kts
01-May-16 20:03 33.586208 -117.404163 83 19678ft 321kts
01-May-16 20:04 33.590408 -117.297943 82 21670ft 325kts
01-May-16 20:05 33.594471 -117.189213 81 23417ft 327kts
01-May-16 20:06 33.598482 -117.079605 81 24640ft 337kts
01-May-16 20:07 33.602530 -116.965460 81 25673ft 349kts
01-May-16 20:08 33.606845 -116.847220 81 26401ft 367kts
01-May-16 20:09 33.610547 -116.741040 82 26553ft 398kts
01-May-16 20:10 33.615077 -116.601951 83 26742ft 438kts
01-May-16 20:11 33.619830 -116.449766 83 27019ft 472kts
01-May-16 20:12 33.624568 -116.292363 83 27503ft 472kts
01-May-16 20:13 33.637414 -116.136382 66 28551ft 463kts
01-May-16 20:14 33.683397 -115.990983 62 29576ft 467kts
01-May-16 20:15 33.729751 -115.849196 62 32072ft 420kts
01-May-16 20:16 33.771106 -115.722297 62 32859ft 410kts
01-May-16 20:17 33.812506 -115.594187 63 32866ft 419kts
01-May-16 20:18 33.854709 -115.463024 63 32869ft 431kts
01-May-16 20:19 33.898620 -115.325951 63 32888ft 445kts
01-May-16 20:20 33.943715 -115.184534 63 32917ft 461kts
01-May-16 20:21 33.990354 -115.037570 63 32919ft 477kts
01-May-16 20:22 34.038039 -114.886624 64 32914ft 488kts
01-May-16 20:23 34.086820 -114.732392 64 32906ft 494kts
01-May-16 20:24 34.111016 -114.570592 81 32906ft 502kts
01-May-16 20:25 34.124423 -114.401956 81 32909ft 506kts
01-May-16 20:26 34.137620 -114.232668 81 32911ft 508kts
01-May-16 20:27 34.150455 -114.065033 81 32913ft 509kts
01-May-16 20:28 34.163233 -113.895084 82 32914ft 509kts
01-May-16 20:29 34.176058 -113.725294 82 32901ft 509kts
01-May-16 20:30 34.188340 -113.555062 80 32904ft 514kts
01-May-16 20:31 34.200653 -113.382417 80 32975ft 517kts
01-May-16 20:32 34.212679 -113.209526 80 33061ft 518kts
01-May-16 20:33 34.224518 -113.035698 80 33073ft 519kts
01-May-16 20:34 34.236172 -112.862834 80 33070ft 518kts
01-May-16 20:35 34.247686 -112.689425 80 33076ft 519kts
01-May-16 20:36 34.258728 -112.516504 80 33079ft 519kts
01-May-16 20:37 34.269469 -112.344446 80 33100ft 517kts
01-May-16 20:38 34.280055 -112.170940 80 33103ft 517kts
01-May-16 20:39 34.290377 -111.997706 80 33113ft 517kts
01-May-16 20:40 34.300758 -111.823519 81 33121ft 518kts
01-May-16 20:41 34.310705 -111.649979 82 33129ft 518kts
01-May-16 20:42 34.320291 -111.476569 82 33135ft 517kts
01-May-16 20:43 34.329258 -111.302447 84 33137ft 517kts
01-May-16 20:44 34.337625 -111.129132 83 33141ft 517kts
01-May-16 20:45 34.346447 -110.955695 83 33143ft 517kts
01-May-16 20:46 34.355234 -110.783473 84 33132ft 516kts
01-May-16 20:47 34.363450 -110.610528 84 33137ft 514kts
01-May-16 20:48 34.371390 -110.439684 85 33163ft 504kts
01-May-16 20:49 34.378931 -110.271502 85 33175ft 502kts
01-May-16 20:50 34.386316 -110.103235 85 33177ft 502kts
01-May-16 20:51 34.393504 -109.934210 85 33180ft 502kts
01-May-16 20:52 34.400750 -109.765620 85 33144ft 504kts
01-May-16 20:53 34.407517 -109.595774 85 33125ft 506kts
01-May-16 20:54 34.414038 -109.425826 85 33127ft 506kts
01-May-16 20:55 34.420321 -109.255922 85 33130ft 506kts
01-May-16 20:56 34.426111 -109.086323 85 33132ft 506kts
01-May-16 20:57 34.432100 -108.916626 85 33134ft 506kts
01-May-16 20:58 34.439525 -108.709654 86 33125ft 506kts
01-May-16 20:59 34.458413 -108.100010 86 33237ft 501kts
01-May-16 21:00 34.475910 -107.433179 87 33434ft 494kts
01-May-16 21:01 34.479348 -107.278996 87 33258ft 498kts
01-May-16 21:02 34.486000 -106.954183 87 33265ft 498kts
01-May-16 21:03 34.495761 -106.393819 87 33246ft 498kts
01-May-16 21:04 34.503967 -105.722754 88 33283ft 495kts
01-May-16 21:05 34.506609 -105.402353 91 33293ft 515kts
01-May-16 21:06 34.507374 -105.255303 92 33304ft 534kts
01-May-16 21:07 34.508188 -105.074156 92 33297ft 538kts
01-May-16 21:08 34.508745 -104.893340 92 33300ft 538kts
01-May-16 21:09 34.509341 -104.713035 92 33282ft 529kts
01-May-16 21:10 34.509376 -104.535818 92 33287ft 525kts
01-May-16 21:11 34.509147 -104.359961 92 33294ft 524kts
01-May-16 21:12 34.508667 -104.184846 92 33297ft 519kts
01-May-16 21:13 34.507946 -104.010272 92 33297ft 518kts
01-May-16 21:14 34.507193 -103.836610 92 33282ft 517kts
01-May-16 21:15 34.506087 -103.663099 93 33282ft 517kts
01-May-16 21:16 34.504633 -103.489815 93 33285ft 517kts
01-May-16 21:17 34.502940 -103.317254 93 33296ft 517kts
01-May-16 21:18 34.500999 -103.144191 93 33309ft 517kts
01-May-16 21:19 34.498801 -102.970222 93 33313ft 517kts
01-May-16 21:20 34.492052 -102.796746 103 33333ft 515kts
01-May-16 21:21 34.472965 -102.622250 101 33301ft 528kts
01-May-16 21:22 34.454414 -102.444465 101 33305ft 534kts
01-May-16 21:23 34.435538 -102.266041 101 33309ft 534kts
01-May-16 21:24 34.416470 -102.088269 101 33287ft 533kts
01-May-16 21:25 34.397271 -101.911732 101 33262ft 531kts
01-May-16 21:26 34.378046 -101.734450 102 33244ft 531kts
01-May-16 21:27 34.358482 -101.559294 102 33247ft 531kts
01-May-16 21:28 34.338544 -101.383182 102 33251ft 531kts
01-May-16 21:29 34.318272 -101.206438 102 33254ft 531kts
01-May-16 21:30 34.297382 -101.029436 103 33259ft 532kts
01-May-16 21:31 34.277022 -100.857140 102 33236ft 533kts
01-May-16 21:32 34.256153 -100.680375 103 33235ft 534kts
01-May-16 21:33 34.234796 -100.503174 103 33238ft 533kts
01-May-16 21:34 34.213183 -100.326060 103 33242ft 533kts
01-May-16 21:35 34.185849 -100.151769 107 33246ft 525kts
01-May-16 21:36 34.155006 -99.980041 107 33249ft 523kts
01-May-16 21:37 34.124365 -99.809058 108 33250ft 522kts
01-May-16 21:38 34.093256 -99.638264 108 33249ft 522kts
01-May-16 21:39 34.062244 -99.469642 108 33225ft 522kts
01-May-16 21:40 34.030584 -99.298890 108 33205ft 522kts
01-May-16 21:41 33.985134 -99.135671 117 31818ft 512kts
01-May-16 21:42 33.935281 -98.976731 116 30197ft 510kts
01-May-16 21:43 33.887687 -98.824846 116 28603ft 509kts
01-May-16 21:44 33.838347 -98.668988 116 26904ft 506kts
01-May-16 21:45 33.788660 -98.512765 116 25183ft 498kts
01-May-16 21:46 33.740473 -98.362517 116 23667ft 485kts
01-May-16 21:47 33.693392 -98.215456 115 21368ft 459kts
01-May-16 21:48 33.649140 -98.077573 115 19063ft 432kts
01-May-16 21:49 33.607443 -97.948163 114 16800ft 412kts
01-May-16 21:50 33.567604 -97.824190 114 14513ft 394kts
01-May-16 21:51 33.530253 -97.709042 113 12266ft 374kts
01-May-16 21:52 33.493297 -97.595723 112 10229ft 359kts
01-May-16 21:53 33.456693 -97.483686 112 10157ft 361kts
01-May-16 21:54 33.411206 -97.377683 119 9440ft 353kts
01-May-16 21:55 33.364655 -97.273857 118 8643ft 355kts
01-May-16 21:56 33.318396 -97.170931 118 7635ft 350kts
01-May-16 21:57 33.274421 -97.073406 117 6190ft 310kts
01-May-16 21:58 33.242240 -97.002109 117 5225ft 279kts
01-May-16 21:59 33.181216 -96.926977 150 4915ft 282kts
01-May-16 22:00 33.126941 -96.890737 150 4755ft 282kts
01-May-16 22:01 33.066698 -96.850966 151 4575ft 281kts
01-May-16 22:02 33.019672 -96.820225 151 4435ft 280kts
01-May-16 22:03 32.975612 -96.791479 151 4305ft 281kts
01-May-16 22:04 32.930647 -96.762205 150 4167ft 280kts
01-May-16 22:05 32.883922 -96.732049 152 3926ft 283kts
01-May-16 22:06 32.831442 -96.705480 181 3117ft 274kts
01-May-16 22:07 32.799130 -96.743333 258 2264ft 234kts
01-May-16 22:08 32.802330 -96.789960 307 1605ft 175kts
01-May-16 22:09 32.823665 -96.818743 320 1145ft 149kts
01-May-16 22:10 32.846718 -96.844586 317 495ft 78kts
01-May-16 22:11 32.850611 -96.846956 66 495ft 10kts
01-May-16 22:12 32.851152 -96.845905 118 495ft 0kts
01-May-16 22:13 32.851152 -96.845905 118 495ft 0kts
01-May-16 22:14 32.851152 -96.845905 118 495ft 0kts
01-May-16 22:15 32.851152 -96.845905 118 495ft 0kts
01-May-16 22:16 32.851152 -96.845905 118 495ft 0kts

Navigation Log

Ident Type
1. KSNA Airport
2. TRM Navaid
3. PKE Navaid
4. NABOB Fix
5. PAYSO Fix
6. CHEAR Fix
7. SJN Navaid
8. TXO Navaid
9. TURKI Fix
10. KDAL Airport